Terminal Aerodrome Forecast
Issued by NWS Louisville, KY

Home | Current Version | Previous Version | Text Only | Print | Product List | Glossary On
Versions: 1 2 3 4 5 6 7 8 9 10 11 12 13 14 15 16 17 18 19 20
000
FTUS43 KLMK 281700
TAFBWG
TAF
KBWG 281721Z 2818/2918 24006KT P6SM VCTS BKN040CB BKN250
     FM290100 VRB03KT P6SM SCT040 BKN250
     FM290900 00000KT 4SM BR SCT250
     FM291300 27004KT P6SM VCSH SCT040 SCT250=

USA.gov is the U.S. government's official web portal to all federal, state and local government web resources and services.